Time;durP1;ratioP1;P1;durP2;ratioP2;P2;SDS_P1;SDS_P2;PMS_P1;PMS_P2;Temp;Humidity;BMP_temperature;BMP_pressure;BME280_temperature;BME280_humidity;BME280_pressure;Samples;Min_cycle;Max_cycle;Signal;HPM_P1;HPM_P2
2024/01/28 00:00:40;;;;;;;28.77;14.60;;;3.00;75.30;;;;;;5058690;28;20229;-79
2024/01/28 00:03:08;;;;;;;28.85;15.10;;;3.00;75.20;;;;;;5060023;28;20630;-80
2024/01/28 00:05:38;;;;;;;28.85;15.35;;;3.00;75.10;;;;;;5056663;28;20199;-80
2024/01/28 00:08:08;;;;;;;27.38;13.98;;;2.90;74.90;;;;;;5047486;28;20523;-80
2024/01/28 00:10:36;;;;;;;28.40;15.45;;;2.80;74.90;;;;;;5059440;28;20223;-79
2024/01/28 00:13:05;;;;;;;24.67;13.00;;;2.70;74.90;;;;;;5060576;28;20213;-80
2024/01/28 00:15:33;;;;;;;25.48;12.75;;;2.70;75.10;;;;;;5057348;28;20192;-79
2024/01/28 00:18:01;;;;;;;28.58;13.40;;;2.70;75.30;;;;;;5045413;28;20279;-80
2024/01/28 00:20:42;;;;;;;25.80;14.30;;;2.70;75.40;;;;;;5058404;28;20216;-80
2024/01/28 00:23:12;;;;;;;28.23;13.65;;;2.70;75.40;;;;;;5038912;28;20245;-80
2024/01/28 00:25:40;;;;;;;24.67;12.90;;;2.70;75.30;;;;;;5046934;28;20198;-80
2024/01/28 00:28:09;;;;;;;29.05;13.57;;;2.70;75.20;;;;;;5043991;28;20214;-80
2024/01/28 00:30:37;;;;;;;31.83;14.77;;;2.70;75.20;;;;;;5064720;28;20313;-79
2024/01/28 00:33:05;;;;;;;33.05;15.23;;;2.70;75.10;;;;;;5056552;28;20239;-79
2024/01/28 00:35:34;;;;;;;33.17;15.13;;;2.70;75.20;;;;;;5045060;28;20228;-79
2024/01/28 00:38:03;;;;;;;33.35;16.58;;;2.60;75.20;;;;;;5043988;28;20257;-79
2024/01/28 00:40:32;;;;;;;30.50;15.73;;;2.60;75.10;;;;;;5036751;28;20220;-79
2024/01/28 00:43:00;;;;;;;35.03;17.27;;;2.50;75.00;;;;;;5053380;28;20302;-80
2024/01/28 00:45:29;;;;;;;33.60;18.23;;;2.50;75.00;;;;;;5056635;28;20196;-79
2024/01/28 00:47:58;;;;;;;37.80;18.25;;;2.50;75.10;;;;;;5063111;28;20212;-79
2024/01/28 00:50:26;;;;;;;36.95;18.33;;;2.50;75.20;;;;;;5063491;28;20223;-79
2024/01/28 00:52:54;;;;;;;35.00;16.40;;;2.50;75.30;;;;;;5059048;28;20204;-80
2024/01/28 00:55:22;;;;;;;27.25;14.00;;;2.50;75.30;;;;;;5066061;28;20214;-79
2024/01/28 00:57:51;;;;;;;23.63;12.60;;;2.50;75.30;;;;;;5053009;28;20298;-79
2024/01/28 01:00:19;;;;;;;23.35;13.35;;;2.60;75.30;;;;;;5042345;28;20218;-80
2024/01/28 01:02:48;;;;;;;24.80;15.43;;;2.60;75.30;;;;;;5060590;28;20473;-80
2024/01/28 01:05:23;;;;;;;28.02;14.10;;;2.60;75.30;;;;;;5044280;28;20231;-79
2024/01/28 01:07:51;;;;;;;36.15;21.42;;;2.60;75.30;;;;;;5041851;28;20202;-79
2024/01/28 01:10:20;;;;;;;40.97;24.60;;;2.60;74.90;;;;;;5047657;28;20294;-79
2024/01/28 01:12:47;;;;;;;28.50;17.00;;;2.50;74.80;;;;;;5040574;28;20239;-79
2024/01/28 01:15:21;;;;;;;33.15;17.85;;;2.40;74.80;;;;;;5040216;28;20529;-80
2024/01/28 01:17:50;;;;;;;34.75;17.58;;;2.40;74.90;;;;;;5040976;28;20455;-79
2024/01/28 01:20:18;;;;;;;27.42;16.45;;;2.30;75.00;;;;;;5042654;28;20257;-79
2024/01/28 01:22:46;;;;;;;37.10;20.65;;;2.30;75.00;;;;;;5055874;28;20230;-79
2024/01/28 01:25:14;;;;;;;45.88;21.52;;;2.30;75.00;;;;;;5057857;28;20205;-79
2024/01/28 01:27:45;;;;;;;35.65;19.50;;;2.30;75.00;;;;;;5061806;28;20542;-79
2024/01/28 01:30:14;;;;;;;39.42;20.42;;;2.30;75.20;;;;;;5045312;28;20207;-80
2024/01/28 01:32:44;;;;;;;37.88;19.52;;;2.30;75.50;;;;;;5037238;28;20204;-80
2024/01/28 01:35:12;;;;;;;40.00;19.50;;;2.30;75.60;;;;;;5061445;28;20191;-79
2024/01/28 01:37:42;;;;;;;38.08;20.85;;;2.40;75.50;;;;;;5045484;28;20207;-79
2024/01/28 01:40:14;;;;;;;40.60;16.92;;;2.40;75.50;;;;;;5037045;28;20300;-80
2024/01/28 01:42:44;;;;;;;29.20;16.42;;;2.40;75.30;;;;;;5043294;28;20945;-79
2024/01/28 01:45:13;;;;;;;31.65;15.20;;;2.50;75.30;;;;;;5061095;28;20692;-80
2024/01/28 01:47:42;;;;;;;32.33;14.85;;;2.40;75.20;;;;;;5054010;28;20264;-80
2024/01/28 01:50:22;;;;;;;21.15;12.20;;;2.40;75.10;;;;;;5055633;28;20665;-80
2024/01/28 01:52:50;;;;;;;23.08;11.52;;;2.40;75.30;;;;;;5043473;28;20785;-80
2024/01/28 01:55:18;;;;;;;31.30;13.60;;;2.40;75.20;;;;;;5060809;28;20197;-80
2024/01/28 01:57:46;;;;;;;30.90;13.63;;;2.40;75.40;;;;;;5043406;28;20213;-78
2024/01/28 02:00:15;;;;;;;26.75;13.13;;;2.40;75.50;;;;;;5057861;28;20214;-80
2024/01/28 02:02:45;;;;;;;18.77;10.45;;;2.40;75.40;;;;;;5059117;28;20220;-80
2024/01/28 02:05:14;;;;;;;26.67;11.45;;;2.50;75.40;;;;;;5054890;28;20225;-80
2024/01/28 02:07:44;;;;;;;20.10;11.40;;;2.50;75.50;;;;;;5056173;28;20275;-80
2024/01/28 02:10:12;;;;;;;18.25;10.82;;;2.50;75.40;;;;;;5058596;28;20266;-79
2024/01/28 02:12:40;;;;;;;22.05;10.98;;;2.50;75.30;;;;;;5038205;28;20197;-80
2024/01/28 02:15:10;;;;;;;24.95;11.90;;;2.50;75.20;;;;;;5041146;28;20211;-80
2024/01/28 02:17:38;;;;;;;26.35;10.93;;;2.40;75.10;;;;;;5039859;28;20217;-80
2024/01/28 02:20:07;;;;;;;18.42;11.25;;;2.40;75.10;;;;;;5059576;28;20203;-80
2024/01/28 02:22:35;;;;;;;18.27;10.60;;;2.40;75.10;;;;;;5056513;28;20231;-80
2024/01/28 02:25:06;;;;;;;29.88;11.65;;;2.40;75.10;;;;;;5059213;28;20517;-80
2024/01/28 02:27:35;;;;;;;20.48;12.70;;;2.40;75.20;;;;;;5039354;28;20207;-80
2024/01/28 02:30:06;;;;;;;18.90;11.57;;;2.30;75.00;;;;;;5039430;28;20200;-80
2024/01/28 02:32:34;;;;;;;24.20;11.30;;;2.30;75.00;;;;;;5038902;28;20248;-80
2024/01/28 02:35:02;;;;;;;21.55;11.82;;;2.20;74.90;;;;;;5037941;28;20252;-81
2024/01/28 02:37:32;;;;;;;25.30;14.85;;;2.20;75.00;;;;;;5057225;28;20228;-79
2024/01/28 02:40:00;;;;;;;27.85;13.00;;;2.10;74.80;;;;;;5040634;28;20617;-80
2024/01/28 02:42:30;;;;;;;28.63;13.68;;;2.10;74.80;;;;;;5056307;28;20217;-80
2024/01/28 02:44:59;;;;;;;28.13;15.13;;;2.00;74.80;;;;;;5040656;28;20208;-79
2024/01/28 02:47:27;;;;;;;25.30;14.43;;;1.90;74.80;;;;;;5062137;28;20202;-80
2024/01/28 02:49:55;;;;;;;29.95;14.88;;;1.90;74.90;;;;;;5056507;28;20192;-80
2024/01/28 02:52:27;;;;;;;36.10;14.70;;;1.90;75.00;;;;;;5037518;28;20199;-80
2024/01/28 02:54:57;;;;;;;24.42;14.10;;;1.90;75.10;;;;;;5056926;28;20267;-80
2024/01/28 02:57:25;;;;;;;26.90;14.40;;;1.90;75.10;;;;;;5061812;28;20579;-80
2024/01/28 02:59:54;;;;;;;25.70;13.68;;;1.90;75.20;;;;;;5041590;28;20239;-80
2024/01/28 03:02:22;;;;;;;30.10;14.20;;;1.90;75.10;;;;;;5052906;28;20232;-80
2024/01/28 03:04:50;;;;;;;27.40;14.80;;;1.90;75.30;;;;;;5057021;28;20648;-80
2024/01/28 03:07:18;;;;;;;35.33;15.02;;;1.90;75.30;;;;;;5039954;28;20218;-79
2024/01/28 03:09:47;;;;;;;26.40;13.52;;;1.90;75.30;;;;;;5040304;28;20206;-80
2024/01/28 03:12:19;;;;;;;24.17;12.55;;;1.90;75.30;;;;;;5036368;28;20218;-80
2024/01/28 03:14:47;;;;;;;27.92;12.73;;;1.90;75.40;;;;;;5039826;28;20202;-80
2024/01/28 03:17:16;;;;;;;21.33;12.55;;;1.90;75.40;;;;;;5041736;28;20211;-80
2024/01/28 03:19:44;;;;;;;23.98;11.65;;;1.90;75.60;;;;;;5058822;28;20644;-79
2024/01/28 03:22:13;;;;;;;24.00;11.23;;;1.90;75.80;;;;;;5051368;28;20266;-80
2024/01/28 03:24:41;;;;;;;19.27;10.80;;;2.00;76.00;;;;;;5056956;28;20764;-79
2024/01/28 03:27:09;;;;;;;24.77;11.85;;;2.10;76.00;;;;;;5051388;28;20695;-80
2024/01/28 03:29:37;;;;;;;19.63;10.23;;;2.20;75.90;;;;;;5046068;28;20211;-79
2024/01/28 03:32:06;;;;;;;18.55;10.60;;;2.20;75.80;;;;;;5058956;28;20227;-79
2024/01/28 03:34:35;;;;;;;17.75;10.48;;;2.20;75.70;;;;;;5039172;28;20207;-80
2024/01/28 03:37:04;;;;;;;19.38;10.70;;;2.20;75.70;;;;;;5048747;28;20291;-80
2024/01/28 03:39:37;;;;;;;22.88;9.43;;;2.20;75.70;;;;;;5056725;28;20188;-79
2024/01/28 03:42:06;;;;;;;16.58;10.00;;;2.20;75.60;;;;;;5055838;28;20530;-79
2024/01/28 03:44:34;;;;;;;19.35;9.85;;;2.20;75.60;;;;;;5039442;28;20207;-79
2024/01/28 03:47:02;;;;;;;21.15;10.60;;;2.20;75.50;;;;;;5054539;28;20239;-79
2024/01/28 03:49:30;;;;;;;24.02;11.40;;;2.20;75.40;;;;;;5052315;28;20314;-79
2024/01/28 03:51:59;;;;;;;23.00;12.00;;;2.20;75.30;;;;;;5052265;28;20192;-79
2024/01/28 03:54:27;;;;;;;24.10;11.65;;;2.20;75.40;;;;;;5054476;28;20227;-79
2024/01/28 03:56:56;;;;;;;26.00;12.85;;;2.10;75.40;;;;;;5056442;28;20290;-80
2024/01/28 03:59:24;;;;;;;20.05;11.18;;;2.10;75.50;;;;;;5047034;28;20234;-79
2024/01/28 04:01:52;;;;;;;24.77;11.30;;;2.20;75.60;;;;;;5045704;28;20251;-79
2024/01/28 04:04:20;;;;;;;18.73;9.60;;;2.20;75.70;;;;;;5046505;28;20203;-79
2024/01/28 04:06:48;;;;;;;17.15;10.05;;;2.20;75.60;;;;;;5053407;28;20249;-79
2024/01/28 04:09:18;;;;;;;25.88;10.80;;;2.20;75.60;;;;;;5046351;28;20200;-80
2024/01/28 04:11:46;;;;;;;22.63;11.15;;;2.20;75.50;;;;;;5037415;28;20299;-79
2024/01/28 04:14:14;;;;;;;16.58;10.38;;;2.20;75.50;;;;;;5056858;28;20295;-79
2024/01/28 04:16:46;;;;;;;19.15;11.70;;;2.20;75.40;;;;;;5047632;28;20204;-80
2024/01/28 04:19:14;;;;;;;22.58;11.95;;;2.20;75.20;;;;;;5029401;28;20208;-79
2024/01/28 04:21:44;;;;;;;19.92;11.30;;;2.10;74.90;;;;;;5052424;28;20219;-79
2024/01/28 04:24:12;;;;;;;16.90;10.32;;;2.00;74.80;;;;;;5043616;28;20219;-79
2024/01/28 04:26:42;;;;;;;19.50;11.50;;;1.90;74.80;;;;;;5041018;28;20636;-79
2024/01/28 04:29:11;;;;;;;16.92;10.48;;;1.80;74.80;;;;;;5037262;28;20222;-79
2024/01/28 04:31:42;;;;;;;15.68;10.43;;;1.70;74.80;;;;;;5039460;28;20250;-79
2024/01/28 04:34:10;;;;;;;20.17;11.05;;;1.70;75.00;;;;;;5038336;28;20278;-80
2024/01/28 04:36:41;;;;;;;25.83;10.38;;;1.70;75.10;;;;;;5055797;28;20211;-79
2024/01/28 04:39:09;;;;;;;20.13;11.43;;;1.70;75.20;;;;;;5039170;28;20318;-79
2024/01/28 04:41:37;;;;;;;24.50;11.10;;;1.70;75.00;;;;;;5045337;28;20199;-80
2024/01/28 04:44:07;;;;;;;25.58;11.85;;;1.60;75.10;;;;;;5043176;28;20219;-80
2024/01/28 04:46:36;;;;;;;21.05;11.00;;;1.70;75.40;;;;;;5048783;28;20688;-79
2024/01/28 04:49:11;;;;;;;17.70;10.55;;;1.70;75.40;;;;;;5055819;28;20205;-80
2024/01/28 04:51:40;;;;;;;17.80;11.00;;;1.80;75.40;;;;;;5063321;28;20294;-80
2024/01/28 04:54:22;;;;;;;22.40;11.93;;;1.80;75.20;;;;;;5059672;28;20203;-80
2024/01/28 04:56:56;;;;;;;22.17;11.93;;;1.80;75.10;;;;;;5060709;28;20639;-79
2024/01/28 04:59:26;;;;;;;21.80;10.50;;;1.80;75.10;;;;;;5044278;28;20221;-80
2024/01/28 05:01:54;;;;;;;17.75;10.27;;;1.80;75.20;;;;;;5034767;28;20228;-79
2024/01/28 05:04:22;;;;;;;25.10;11.80;;;1.80;75.00;;;;;;5038886;28;20223;-80
2024/01/28 05:06:51;;;;;;;19.27;11.38;;;1.80;74.90;;;;;;5050766;28;20653;-79
2024/01/28 05:09:19;;;;;;;24.38;12.55;;;1.70;75.00;;;;;;5061880;28;20688;-80
2024/01/28 05:11:47;;;;;;;21.50;12.18;;;1.80;75.10;;;;;;5044657;28;20199;-79
2024/01/28 05:14:15;;;;;;;27.08;12.25;;;1.70;75.00;;;;;;5041417;28;20218;-79
2024/01/28 05:16:48;;;;;;;28.17;12.40;;;1.70;75.00;;;;;;5042492;28;20200;-80
2024/01/28 05:19:19;;;;;;;24.33;13.40;;;1.70;75.20;;;;;;5040396;28;20670;-79
2024/01/28 05:21:47;;;;;;;26.08;13.38;;;1.70;75.20;;;;;;5057614;28;20235;-80
2024/01/28 05:24:17;;;;;;;27.40;12.80;;;1.70;75.40;;;;;;5055842;28;20277;-79
2024/01/28 05:26:45;;;;;;;22.98;13.90;;;1.80;75.40;;;;;;5033117;28;20204;-80
2024/01/28 05:29:15;;;;;;;22.77;12.35;;;1.80;75.40;;;;;;5058169;28;20210;-80
2024/01/28 05:31:43;;;;;;;25.95;14.32;;;1.80;75.30;;;;;;5041435;28;20726;-80
2024/01/28 05:34:13;;;;;;;28.92;13.60;;;1.80;75.40;;;;;;5057348;28;20203;-79
2024/01/28 05:36:41;;;;;;;27.58;12.98;;;1.90;75.30;;;;;;5048172;28;20207;-80
2024/01/28 05:39:10;;;;;;;22.67;14.50;;;1.80;75.20;;;;;;5046137;28;20200;-79
2024/01/28 05:41:38;;;;;;;30.58;16.50;;;1.80;75.20;;;;;;5064822;28;20666;-79
2024/01/28 05:44:11;;;;;;;32.20;17.20;;;1.80;75.20;;;;;;5059366;28;20211;-80
2024/01/28 05:46:39;;;;;;;31.20;16.92;;;1.80;75.00;;;;;;5059818;28;20211;-80
2024/01/28 05:49:10;;;;;;;40.97;17.77;;;1.70;75.10;;;;;;5062470;28;20262;-79
2024/01/28 05:51:43;;;;;;;27.08;15.65;;;1.70;75.40;;;;;;5060871;28;20238;-79
2024/01/28 05:54:11;;;;;;;28.83;16.25;;;1.80;75.50;;;;;;5043436;28;20291;-80
2024/01/28 05:56:41;;;;;;;30.55;17.10;;;1.80;75.50;;;;;;5058148;28;20211;-79
2024/01/28 05:59:09;;;;;;;30.83;15.30;;;1.80;75.40;;;;;;5045766;28;20218;-79
2024/01/28 06:01:37;;;;;;;28.52;14.30;;;1.80;75.30;;;;;;5057965;28;20698;-80
2024/01/28 06:04:07;;;;;;;31.75;15.43;;;1.80;75.30;;;;;;5043229;28;20300;-79
2024/01/28 06:06:36;;;;;;;33.85;17.05;;;1.80;75.30;;;;;;5058673;28;20188;-80
2024/01/28 06:09:06;;;;;;;29.80;15.32;;;1.80;75.00;;;;;;5063234;28;20251;-79
2024/01/28 06:11:37;;;;;;;27.35;15.15;;;1.70;75.00;;;;;;5054194;28;20204;-79
2024/01/28 06:14:05;;;;;;;30.23;15.77;;;1.70;75.20;;;;;;5042536;28;20225;-79
2024/01/28 06:16:33;;;;;;;25.60;16.08;;;1.70;75.40;;;;;;5045870;28;20204;-80
2024/01/28 06:19:01;;;;;;;31.20;15.77;;;1.70;75.20;;;;;;5060173;28;20286;-80
2024/01/28 06:21:29;;;;;;;23.75;14.65;;;1.70;75.00;;;;;;5046448;28;20678;-79
2024/01/28 06:23:57;;;;;;;34.45;16.15;;;1.60;75.10;;;;;;5045966;28;20226;-79
2024/01/28 06:26:32;;;;;;;28.02;14.90;;;1.60;75.10;;;;;;5058452;28;20211;-79
2024/01/28 06:29:02;;;;;;;27.58;14.75;;;1.60;75.20;;;;;;5058453;28;20298;-79
2024/01/28 06:31:32;;;;;;;27.75;15.48;;;1.70;75.40;;;;;;5045038;28;20602;-80
2024/01/28 06:34:04;;;;;;;25.63;14.05;;;1.70;75.20;;;;;;5058323;28;20224;-79
2024/01/28 06:36:32;;;;;;;26.15;13.85;;;1.60;75.10;;;;;;5043306;28;20211;-79
2024/01/28 06:39:00;;;;;;;25.63;16.20;;;1.60;75.00;;;;;;5062097;28;20240;-79
2024/01/28 06:41:41;;;;;;;29.25;14.93;;;1.60;75.00;;;;;;5057677;28;20199;-79
2024/01/28 06:44:09;;;;;;;35.45;19.85;;;1.60;75.00;;;;;;5061019;28;20277;-79
2024/01/28 06:46:37;;;;;;;31.52;17.05;;;1.50;75.20;;;;;;5057271;28;20208;-79
2024/01/28 06:49:06;;;;;;;25.10;16.30;;;1.50;75.40;;;;;;5044478;28;20202;-79
2024/01/28 06:51:34;;;;;;;37.25;19.40;;;1.50;75.40;;;;;;5058808;28;20204;-79
2024/01/28 06:54:02;;;;;;;28.83;18.40;;;1.50;75.40;;;;;;5044249;28;20217;-79
2024/01/28 06:56:30;;;;;;;48.08;27.38;;;1.50;75.40;;;;;;5062420;28;20191;-79
2024/01/28 06:58:59;;;;;;;32.45;19.17;;;1.50;75.40;;;;;;5044886;28;20214;-79
2024/01/28 07:01:29;;;;;;;26.95;18.00;;;1.50;75.30;;;;;;5061615;28;20220;-79
2024/01/28 07:03:57;;;;;;;23.80;15.40;;;1.50;75.40;;;;;;5041150;28;20220;-79
2024/01/28 07:06:25;;;;;;;37.38;22.55;;;1.50;75.60;;;;;;5027954;28;20202;-79
2024/01/28 07:08:53;;;;;;;44.95;24.80;;;1.50;75.80;;;;;;5035903;28;20268;-79
2024/01/28 07:11:27;;;;;;;60.15;30.75;;;1.60;75.80;;;;;;5065414;28;20517;-79
2024/01/28 07:13:55;;;;;;;68.18;34.70;;;1.60;75.90;;;;;;5043345;28;20222;-79
2024/01/28 07:16:24;;;;;;;72.32;32.20;;;1.60;75.90;;;;;;5056382;28;20641;-79
2024/01/28 07:18:52;;;;;;;97.22;43.38;;;1.60;75.80;;;;;;5038517;28;20232;-79
2024/01/28 07:21:22;;;;;;;124.95;50.83;;;1.60;75.70;;;;;;5041739;28;20643;-79
2024/01/28 07:23:50;;;;;;;146.82;60.55;;;1.60;75.90;;;;;;5026518;28;20208;-79
2024/01/28 07:26:18;;;;;;;124.57;62.55;;;1.70;75.90;;;;;;5055111;28;20290;-79
2024/01/28 07:28:46;;;;;;;154.70;68.55;;;1.70;75.80;;;;;;5059187;28;20287;-79
2024/01/28 07:31:15;;;;;;;187.35;88.00;;;1.70;75.90;;;;;;5051256;28;20225;-79
2024/01/28 07:33:45;;;;;;;132.65;61.30;;;1.60;75.90;;;;;;5030393;28;20221;-79
2024/01/28 07:36:16;;;;;;;90.78;46.58;;;1.70;75.90;;;;;;5057118;28;21251;-79
2024/01/28 07:38:44;;;;;;;62.25;34.10;;;1.70;75.90;;;;;;5041576;28;20655;-79
2024/01/28 07:41:14;;;;;;;49.45;29.40;;;1.60;75.90;;;;;;5044261;28;20221;-79
2024/01/28 07:43:43;;;;;;;48.05;29.10;;;1.60;76.10;;;;;;5060625;28;20204;-78
2024/01/28 07:46:19;;;;;;;46.70;23.98;;;1.60;76.00;;;;;;5067911;28;20262;-79
2024/01/28 07:48:55;;;;;;;32.55;19.17;;;1.60;76.10;;;;;;5060791;28;20199;-79
2024/01/28 07:51:23;;;;;;;33.00;19.73;;;1.70;76.20;;;;;;5043737;28;20297;-79
2024/01/28 07:53:52;;;;;;;35.20;19.35;;;1.70;76.40;;;;;;5062460;28;20270;-82
2024/01/28 07:56:20;;;;;;;34.95;22.23;;;1.80;76.40;;;;;;5068404;28;20242;-79
2024/01/28 07:58:48;;;;;;;43.67;23.65;;;1.80;76.40;;;;;;5047988;28;20782;-79
2024/01/28 08:01:16;;;;;;;84.35;42.58;;;1.80;76.10;;;;;;5044167;28;20226;-79
2024/01/28 08:03:44;;;;;;;63.47;36.72;;;1.80;76.30;;;;;;5042387;28;20638;-79
2024/01/28 08:06:14;;;;;;;53.65;30.75;;;1.80;76.40;;;;;;5045250;28;20253;-79
2024/01/28 08:08:43;;;;;;;43.50;28.08;;;1.90;76.40;;;;;;5043532;28;20239;-79
2024/01/28 08:11:11;;;;;;;41.60;24.05;;;1.90;76.40;;;;;;5060492;28;20203;-79
2024/01/28 08:13:39;;;;;;;42.95;24.95;;;1.90;76.40;;;;;;5059580;28;20210;-78
2024/01/28 08:16:07;;;;;;;38.75;24.75;;;1.90;76.40;;;;;;5049141;28;20544;-79
2024/01/28 08:18:35;;;;;;;43.95;23.98;;;1.90;76.50;;;;;;5035252;28;20208;-79
2024/01/28 08:21:03;;;;;;;47.50;26.35;;;1.90;76.60;;;;;;5046914;28;20223;-79
2024/01/28 08:23:34;;;;;;;53.25;28.55;;;2.00;76.50;;;;;;5045610;28;20625;-79
2024/01/28 08:26:02;;;;;;;52.58;25.83;;;2.00;76.50;;;;;;5042970;28;20220;-79
2024/01/28 08:28:30;;;;;;;52.05;25.00;;;2.00;76.50;;;;;;5045245;28;20200;-79
2024/01/28 08:30:58;;;;;;;48.90;25.45;;;2.00;76.50;;;;;;5060929;28;20368;-79
2024/01/28 08:33:26;;;;;;;46.20;26.10;;;2.10;76.50;;;;;;5059440;28;20278;-79
2024/01/28 08:35:55;;;;;;;45.58;26.58;;;2.10;76.40;;;;;;5062725;28;20205;-79
2024/01/28 08:38:23;;;;;;;37.35;21.63;;;2.10;76.50;;;;;;5061526;28;20214;-79
2024/01/28 08:40:52;;;;;;;46.42;23.65;;;2.10;76.50;;;;;;5061562;28;20203;-79
2024/01/28 08:43:20;;;;;;;49.53;28.38;;;2.10;76.50;;;;;;5065773;28;20285;-79
2024/01/28 08:45:49;;;;;;;41.95;26.90;;;2.10;76.50;;;;;;5048960;28;20211;-78
2024/01/28 08:48:17;;;;;;;50.35;29.45;;;2.10;76.50;;;;;;5039128;28;20584;-79
2024/01/28 08:50:45;;;;;;;48.10;28.70;;;2.10;76.70;;;;;;5057057;28;20208;-79
2024/01/28 08:53:13;;;;;;;73.30;39.03;;;2.20;76.90;;;;;;5040580;28;20219;-79
2024/01/28 08:55:41;;;;;;;62.28;35.92;;;2.20;76.80;;;;;;5041130;28;20708;-79
2024/01/28 08:58:11;;;;;;;49.25;26.15;;;2.20;76.90;;;;;;5039811;28;20569;-78
2024/01/28 09:00:39;;;;;;;41.55;24.13;;;2.20;77.00;;;;;;5042830;28;20739;-79
2024/01/28 09:03:08;;;;;;;30.85;18.77;;;2.30;77.10;;;;;;5063318;28;20215;-79
2024/01/28 09:05:36;;;;;;;33.15;18.73;;;2.30;77.20;;;;;;5045968;28;20222;-79
2024/01/28 09:08:04;;;;;;;30.15;17.48;;;2.40;77.20;;;;;;5037859;28;20216;-79
2024/01/28 09:10:33;;;;;;;27.73;16.35;;;2.40;77.30;;;;;;5066616;28;20199;-79
2024/01/28 09:13:01;;;;;;;25.33;14.70;;;2.40;77.40;;;;;;5041656;28;20212;-79
2024/01/28 09:15:31;;;;;;;28.92;16.00;;;2.50;77.50;;;;;;5044433;28;20192;-79
2024/01/28 09:17:59;;;;;;;24.45;16.45;;;2.50;77.50;;;;;;5061859;28;20409;-78
2024/01/28 09:20:27;;;;;;;30.75;15.65;;;2.50;77.60;;;;;;5060372;28;20200;-78
2024/01/28 09:22:55;;;;;;;28.67;16.20;;;2.60;77.80;;;;;;5065344;28;20274;-79
2024/01/28 09:25:23;;;;;;;27.13;15.10;;;2.60;77.80;;;;;;5062865;28;20307;-79
2024/01/28 09:27:55;;;;;;;26.63;18.40;;;2.70;77.90;;;;;;5042820;28;20558;-79
2024/01/28 09:30:23;;;;;;;29.00;16.77;;;2.70;78.00;;;;;;5039668;28;20709;-78
2024/01/28 09:32:53;;;;;;;46.05;21.38;;;2.80;78.00;;;;;;5060215;28;20209;-78
2024/01/28 09:35:21;;;;;;;37.08;17.88;;;2.80;78.10;;;;;;5060147;28;20239;-79
2024/01/28 09:37:50;;;;;;;31.02;17.52;;;2.80;78.20;;;;;;5047055;28;20523;-79
2024/01/28 09:40:18;;;;;;;36.25;21.17;;;2.90;78.30;;;;;;5059978;28;20291;-77
2024/01/28 09:42:53;;;;;;;51.63;21.45;;;3.00;78.30;;;;;;5056526;28;20210;-78
2024/01/28 09:45:22;;;;;;;35.85;17.20;;;3.00;78.50;;;;;;5057020;28;20354;-77
2024/01/28 09:47:50;;;;;;;29.73;17.95;;;3.10;78.60;;;;;;5061721;28;20273;-78
2024/01/28 09:50:20;;;;;;;34.97;17.17;;;3.10;78.60;;;;;;5043023;28;20203;-78
2024/01/28 09:52:48;;;;;;;29.85;17.02;;;3.20;78.70;;;;;;5060301;28;20196;-78
2024/01/28 09:55:16;;;;;;;32.72;18.23;;;3.20;78.70;;;;;;5059074;28;20207;-77
2024/01/28 09:57:44;;;;;;;33.28;16.40;;;3.30;78.70;;;;;;5047599;28;20222;-78
2024/01/28 10:00:14;;;;;;;30.42;14.68;;;3.30;78.80;;;;;;5042381;28;20212;-77
2024/01/28 10:02:42;;;;;;;29.15;15.00;;;3.30;78.80;;;;;;5054311;28;20742;-78
2024/01/28 10:05:14;;;;;;;27.55;15.10;;;3.30;78.80;;;;;;5037780;28;20208;-78
2024/01/28 10:07:47;;;;;;;31.88;15.98;;;3.40;78.90;;;;;;5052826;28;20219;-78
2024/01/28 10:10:17;;;;;;;26.70;15.45;;;3.40;79.00;;;;;;5034933;28;20211;-77
2024/01/28 10:12:47;;;;;;;35.75;18.75;;;3.50;79.00;;;;;;5050196;28;20209;-77
2024/01/28 10:15:16;;;;;;;26.23;14.95;;;3.50;79.00;;;;;;5039024;28;20200;-77
2024/01/28 10:17:48;;;;;;;22.15;13.00;;;3.60;79.10;;;;;;5042881;28;20265;-77
2024/01/28 10:20:17;;;;;;;28.83;16.38;;;3.60;79.10;;;;;;5057929;28;20637;-77
2024/01/28 10:22:47;;;;;;;27.85;18.33;;;3.70;79.10;;;;;;5039600;28;20233;-77
2024/01/28 10:25:17;;;;;;;36.58;16.60;;;3.80;79.00;;;;;;5041199;28;20212;-77
2024/01/28 10:27:46;;;;;;;27.15;15.10;;;3.80;79.00;;;;;;5030783;28;20231;-77
2024/01/28 10:30:15;;;;;;;20.33;13.68;;;3.90;79.00;;;;;;5042941;28;20330;-77
2024/01/28 10:32:44;;;;;;;23.50;13.27;;;3.90;79.00;;;;;;5036560;28;20302;-77
2024/01/28 10:35:13;;;;;;;28.30;16.35;;;4.00;78.90;;;;;;5034878;28;20208;-77
2024/01/28 10:37:41;;;;;;;30.48;17.70;;;4.00;79.00;;;;;;5050077;28;20200;-77
2024/01/28 10:40:12;;;;;;;32.55;19.38;;;4.00;79.00;;;;;;5051458;28;20283;-77
2024/01/28 10:42:42;;;;;;;33.75;18.10;;;4.00;79.00;;;;;;5051815;28;20208;-77
2024/01/28 10:45:11;;;;;;;21.02;14.55;;;4.10;79.10;;;;;;5036452;28;20759;-77
2024/01/28 10:47:44;;;;;;;21.58;13.60;;;4.10;79.10;;;;;;5053610;28;20727;-77
2024/01/28 10:50:15;;;;;;;25.48;14.43;;;4.10;79.10;;;;;;5045593;28;20235;-77
2024/01/28 10:52:45;;;;;;;22.88;13.40;;;4.10;79.10;;;;;;5048789;28;20215;-77
2024/01/28 10:55:16;;;;;;;23.92;12.50;;;4.20;79.10;;;;;;5060083;28;20961;-78
2024/01/28 10:57:47;;;;;;;28.75;14.68;;;4.20;79.10;;;;;;5051909;28;20223;-77
2024/01/28 11:00:20;;;;;;;34.95;16.67;;;4.20;79.10;;;;;;5026661;28;20556;-77
2024/01/28 11:02:50;;;;;;;32.65;18.83;;;4.30;79.10;;;;;;5053917;28;20207;-77
2024/01/28 11:05:19;;;;;;;32.45;18.80;;;4.30;79.10;;;;;;5050590;28;20216;-77
2024/01/28 11:07:48;;;;;;;26.02;17.20;;;4.40;79.10;;;;;;5057921;28;20220;-78
2024/01/28 11:10:21;;;;;;;25.90;14.75;;;4.40;79.00;;;;;;5055417;28;20203;-78
2024/01/28 11:12:50;;;;;;;20.17;12.70;;;4.40;79.00;;;;;;5056569;28;20214;-77
2024/01/28 11:15:20;;;;;;;26.20;13.00;;;4.50;79.00;;;;;;5059542;28;20282;-77
2024/01/28 11:17:50;;;;;;;22.33;12.23;;;4.50;79.00;;;;;;5043791;28;20207;-78
2024/01/28 11:20:24;;;;;;;24.73;13.90;;;4.50;78.90;;;;;;5059481;28;20199;-77
2024/01/28 11:22:54;;;;;;;24.90;12.30;;;4.60;78.90;;;;;;5042686;28;20208;-78
2024/01/28 11:25:26;;;;;;;32.88;17.67;;;4.60;78.90;;;;;;5033028;28;20215;-77
2024/01/28 11:28:00;;;;;;;21.63;13.48;;;4.70;78.90;;;;;;5059558;28;21119;-78
2024/01/28 11:30:29;;;;;;;22.50;12.80;;;4.70;78.90;;;;;;5059514;28;20235;-78
2024/01/28 11:33:09;;;;;;;24.05;14.52;;;4.70;78.90;;;;;;5041114;28;20219;-78
2024/01/28 11:35:38;;;;;;;22.92;12.40;;;4.80;78.90;;;;;;5043775;28;20211;-78
2024/01/28 11:38:07;;;;;;;26.67;13.13;;;4.80;78.80;;;;;;5037334;28;20499;-78
2024/01/28 11:40:38;;;;;;;23.63;13.20;;;4.90;78.80;;;;;;5065566;28;20231;-76
2024/01/28 11:43:08;;;;;;;21.60;13.75;;;4.90;78.80;;;;;;5046344;28;20238;-77
2024/01/28 11:45:38;;;;;;;26.27;12.23;;;4.90;78.80;;;;;;5052414;28;20315;-79
2024/01/28 11:48:07;;;;;;;23.48;13.88;;;4.90;78.80;;;;;;5040021;28;20228;-78
2024/01/28 11:50:35;;;;;;;27.42;13.80;;;5.00;78.70;;;;;;5059235;28;20207;-76
2024/01/28 11:53:05;;;;;;;30.13;15.38;;;5.00;78.70;;;;;;5041323;28;20216;-76
2024/01/28 11:55:33;;;;;;;25.67;14.40;;;5.00;78.60;;;;;;5050431;28;20247;-78
2024/01/28 11:58:03;;;;;;;24.63;14.20;;;5.00;78.60;;;;;;5041951;28;20212;-78
2024/01/28 12:00:31;;;;;;;25.75;13.70;;;5.10;78.60;;;;;;5030077;28;20232;-76
2024/01/28 12:02:59;;;;;;;23.63;14.20;;;5.10;78.60;;;;;;5060695;28;20640;-78
2024/01/28 12:05:28;;;;;;;23.38;12.48;;;5.20;78.60;;;;;;5037852;28;20311;-78
2024/01/28 12:07:59;;;;;;;19.95;12.40;;;5.20;78.50;;;;;;5041076;28;20658;-77
2024/01/28 12:10:31;;;;;;;19.48;11.70;;;5.30;78.50;;;;;;5042979;28;20213;-77
2024/01/28 12:13:00;;;;;;;21.55;11.23;;;5.30;78.50;;;;;;5040119;28;20825;-77
2024/01/28 12:15:29;;;;;;;25.67;12.65;;;5.30;78.50;;;;;;5056237;28;20655;-78
2024/01/28 12:17:58;;;;;;;20.90;11.60;;;5.30;78.50;;;;;;5042907;28;20281;-78
2024/01/28 12:20:27;;;;;;;20.20;11.07;;;5.40;78.40;;;;;;5053500;28;20202;-77
2024/01/28 12:22:55;;;;;;;23.65;12.10;;;5.40;78.40;;;;;;5057849;28;20229;-77
2024/01/28 12:25:24;;;;;;;19.15;11.25;;;5.40;78.40;;;;;;5039194;28;20214;-77
2024/01/28 12:27:52;;;;;;;24.00;11.23;;;5.50;78.30;;;;;;5037247;28;20224;-77
2024/01/28 12:30:21;;;;;;;18.55;10.70;;;5.50;78.20;;;;;;5052206;28;20269;-77
2024/01/28 12:32:51;;;;;;;17.67;10.73;;;5.50;78.30;;;;;;5056536;28;20292;-78
2024/01/28 12:35:19;;;;;;;20.25;12.40;;;5.60;78.20;;;;;;5035337;28;20215;-77
2024/01/28 12:37:53;;;;;;;20.65;10.90;;;5.60;78.20;;;;;;5059622;28;20633;-78
2024/01/28 12:40:21;;;;;;;18.73;10.88;;;5.70;78.20;;;;;;5054729;28;20204;-77
2024/01/28 12:42:50;;;;;;;20.33;10.00;;;5.70;78.20;;;;;;5056354;28;20698;-77
2024/01/28 12:45:18;;;;;;;25.70;12.15;;;5.70;78.10;;;;;;5057114;28;20280;-78